Time;durP1;ratioP1;P1;durP2;ratioP2;P2;SDS_P1;SDS_P2;PMS_P1;PMS_P2;Temp;Humidity;BMP_temperature;BMP_pressure;BME280_temperature;BME280_humidity;BME280_pressure;Samples;Min_cycle;Max_cycle;Signal;HPM_P1;HPM_P2
2021/01/28 00:04:17;;;;;;;4.30;3.60;;;;;;;;;;4882518;28;20901;-58
2021/01/28 00:06:43;;;;;;;4.10;3.70;;;;;;;;;;4179083;34;20213;-60
2021/01/28 00:09:09;;;;;;;4.05;3.50;;;;;;;;;;4179124;34;20113;-61
2021/01/28 00:11:35;;;;;;;4.57;3.95;;;;;;;;;;4192114;34;20546;-61
2021/01/28 00:14:01;;;;;;;5.65;3.80;;;;;;;;;;4192161;34;20628;-61
2021/01/28 00:16:27;;;;;;;4.28;3.85;;;;;;;;;;4179257;34;20121;-61
2021/01/28 00:18:53;;;;;;;4.07;3.67;;;;;;;;;;4192348;34;20137;-61
2021/01/28 00:21:19;;;;;;;4.37;3.87;;;;;;;;;;4192165;34;20134;-61
2021/01/28 00:23:45;;;;;;;4.65;3.78;;;;;;;;;;4192082;34;20110;-61
2021/01/28 00:26:11;;;;;;;4.32;3.90;;;;;;;;;;4192349;34;20117;-60
2021/01/28 00:28:37;;;;;;;4.22;3.80;;;;;;;;;;4192313;34;20098;-61
2021/01/28 00:31:03;;;;;;;4.40;3.97;;;;;;;;;;4192014;34;20206;-61
2021/01/28 00:33:29;;;;;;;4.25;3.70;;;;;;;;;;4191994;34;20180;-61
2021/01/28 00:35:55;;;;;;;4.40;4.00;;;;;;;;;;4191778;34;20477;-61
2021/01/28 00:38:30;;;;;;;4.85;4.28;;;;;;;;;;4191927;34;20198;-61
2021/01/28 00:40:56;;;;;;;4.57;3.90;;;;;;;;;;4179318;34;20109;-61
2021/01/28 00:43:22;;;;;;;4.80;3.83;;;;;;;;;;4179148;34;20112;-60
2021/01/28 00:45:48;;;;;;;5.43;4.07;;;;;;;;;;4191954;34;20185;-61
2021/01/28 00:48:14;;;;;;;5.05;3.80;;;;;;;;;;4191797;34;20102;-61
2021/01/28 00:50:40;;;;;;;4.00;3.60;;;;;;;;;;4192054;34;20094;-60
2021/01/28 00:53:06;;;;;;;5.78;4.03;;;;;;;;;;4192045;34;20199;-61
2021/01/28 00:55:32;;;;;;;5.30;3.97;;;;;;;;;;4179266;34;20125;-61
2021/01/28 00:57:58;;;;;;;4.18;3.75;;;;;;;;;;4191848;34;20125;-61
2021/01/28 01:00:27;;;;;;;4.57;4.18;;;;;;;;;;4191767;34;20242;-60
2021/01/28 01:02:53;;;;;;;4.22;3.83;;;;;;;;;;4190988;34;20090;-60
2021/01/28 01:05:20;;;;;;;4.00;3.55;;;;;;;;;;4191300;34;20125;-61
2021/01/28 01:07:46;;;;;;;4.60;4.05;;;;;;;;;;4191664;34;20147;-60
2021/01/28 01:10:33;;;;;;;4.90;3.80;;;;;;;;;;4191529;34;20098;-61
2021/01/28 01:12:58;;;;;;;4.68;4.18;;;;;;;;;;4191594;34;20129;-61
2021/01/28 01:15:24;;;;;;;4.68;3.90;;;;;;;;;;4191608;34;20120;-61
2021/01/28 01:17:50;;;;;;;4.40;4.00;;;;;;;;;;4191588;34;20534;-60
2021/01/28 01:20:20;;;;;;;4.05;3.65;;;;;;;;;;4191522;34;20114;-61
2021/01/28 01:22:46;;;;;;;4.37;3.97;;;;;;;;;;4191838;34;20134;-61
2021/01/28 01:25:12;;;;;;;4.30;3.90;;;;;;;;;;4191662;34;20124;-61
2021/01/28 01:27:38;;;;;;;4.57;4.10;;;;;;;;;;4191462;34;20117;-60
2021/01/28 01:30:05;;;;;;;6.07;4.45;;;;;;;;;;4191398;34;20111;-61
2021/01/28 01:32:31;;;;;;;4.20;3.80;;;;;;;;;;4178885;34;20139;-61
2021/01/28 01:34:57;;;;;;;4.47;4.07;;;;;;;;;;4191304;34;20478;-61
2021/01/28 01:37:23;;;;;;;5.07;4.22;;;;;;;;;;4191577;34;20122;-60
2021/01/28 01:39:48;;;;;;;4.90;4.43;;;;;;;;;;4191235;34;20185;-61
2021/01/28 01:42:14;;;;;;;4.62;4.22;;;;;;;;;;4191317;34;20125;-61
2021/01/28 01:44:40;;;;;;;4.85;4.07;;;;;;;;;;4191236;34;20185;-61
2021/01/28 01:47:18;;;;;;;6.55;4.20;;;;;;;;;;4191273;34;20513;-60
2021/01/28 01:49:45;;;;;;;5.20;4.32;;;;;;;;;;4191126;34;20102;-61
2021/01/28 01:52:11;;;;;;;4.53;4.12;;;;;;;;;;4167041;34;20130;-61
2021/01/28 01:54:37;;;;;;;4.85;4.43;;;;;;;;;;4167071;34;20137;-61
2021/01/28 01:57:09;;;;;;;4.55;4.15;;;;;;;;;;4178780;34;20210;-61
2021/01/28 01:59:44;;;;;;;4.82;4.30;;;;;;;;;;4191136;34;20603;-61
2021/01/28 02:02:15;;;;;;;4.93;4.28;;;;;;;;;;4167363;34;20130;-59
2021/01/28 02:04:41;;;;;;;4.93;4.43;;;;;;;;;;4178148;34;20182;-60
2021/01/28 02:07:10;;;;;;;5.47;4.62;;;;;;;;;;4167024;34;20188;-59
2021/01/28 02:09:36;;;;;;;4.60;4.12;;;;;;;;;;4178542;34;20254;-59
2021/01/28 02:12:03;;;;;;;5.32;4.30;;;;;;;;;;4191067;34;20122;-60
2021/01/28 02:14:29;;;;;;;5.05;4.55;;;;;;;;;;4190613;34;20538;-59
2021/01/28 02:16:57;;;;;;;4.82;4.07;;;;;;;;;;4178278;34;20237;-60
2021/01/28 02:19:42;;;;;;;5.12;4.00;;;;;;;;;;4167334;34;20110;-60
2021/01/28 02:22:08;;;;;;;4.65;4.22;;;;;;;;;;4191213;34;20136;-60
2021/01/28 02:25:05;;;;;;;6.90;5.97;;;;;;;;;;4190786;34;20202;-59
2021/01/28 02:27:31;;;;;;;6.05;4.80;;;;;;;;;;4178356;34;20535;-60
2021/01/28 02:30:05;;;;;;;5.32;4.82;;;;;;;;;;4166952;34;20102;-59
2021/01/28 02:32:31;;;;;;;4.87;4.12;;;;;;;;;;4190902;34;20204;-58
2021/01/28 02:34:57;;;;;;;4.87;4.32;;;;;;;;;;4190871;34;20106;-59
2021/01/28 02:37:23;;;;;;;5.18;4.68;;;;;;;;;;4191214;34;20200;-59
2021/01/28 02:39:49;;;;;;;5.50;4.57;;;;;;;;;;4190819;34;20130;-58
2021/01/28 02:42:17;;;;;;;4.75;4.35;;;;;;;;;;4190794;34;20129;-59
2021/01/28 02:44:43;;;;;;;5.32;4.60;;;;;;;;;;4178011;34;20152;-60
2021/01/28 02:47:08;;;;;;;5.72;5.05;;;;;;;;;;4190785;34;20106;-61
2021/01/28 02:49:34;;;;;;;5.40;4.47;;;;;;;;;;4190721;34;20167;-59
2021/01/28 02:52:00;;;;;;;5.45;4.50;;;;;;;;;;4190578;34;20110;-60
2021/01/28 02:54:26;;;;;;;5.10;4.30;;;;;;;;;;4190559;34;20122;-59
2021/01/28 02:56:52;;;;;;;8.27;4.82;;;;;;;;;;4190858;34;20542;-60
2021/01/28 02:59:18;;;;;;;5.43;4.20;;;;;;;;;;4177759;34;20136;-62
2021/01/28 03:01:44;;;;;;;6.53;4.28;;;;;;;;;;4190588;34;20541;-60
2021/01/28 03:04:10;;;;;;;4.70;4.07;;;;;;;;;;4177444;34;20130;-62
2021/01/28 03:06:36;;;;;;;5.55;4.35;;;;;;;;;;4190577;34;20105;-63
2021/01/28 03:09:05;;;;;;;5.22;4.43;;;;;;;;;;4190464;34;20122;-58
2021/01/28 03:11:31;;;;;;;6.65;4.53;;;;;;;;;;4177882;34;20110;-60
2021/01/28 03:13:58;;;;;;;6.12;4.95;;;;;;;;;;4190459;34;20126;-59
2021/01/28 03:16:24;;;;;;;5.60;4.30;;;;;;;;;;4191033;34;20274;-59
2021/01/28 03:18:50;;;;;;;5.53;4.15;;;;;;;;;;4198830;34;20102;-60
2021/01/28 03:21:16;;;;;;;4.78;4.25;;;;;;;;;;4197383;34;20205;-62
2021/01/28 03:23:42;;;;;;;4.72;4.22;;;;;;;;;;4204229;34;20563;-64
2021/01/28 03:26:08;;;;;;;5.87;4.47;;;;;;;;;;4194492;34;20633;-64
2021/01/28 03:28:33;;;;;;;7.37;4.18;;;;;;;;;;4192485;34;20705;-58
2021/01/28 03:30:59;;;;;;;5.32;4.50;;;;;;;;;;4188272;34;20528;-59
2021/01/28 03:33:26;;;;;;;4.35;3.95;;;;;;;;;;4195462;34;20103;-61
2021/01/28 03:35:52;;;;;;;7.45;5.97;;;;;;;;;;4194588;34;20118;-61
2021/01/28 03:38:18;;;;;;;5.90;4.60;;;;;;;;;;4192200;34;20510;-61
2021/01/28 03:40:44;;;;;;;5.37;4.50;;;;;;;;;;4181637;34;20580;-60
2021/01/28 03:43:10;;;;;;;4.80;4.30;;;;;;;;;;4178936;34;20442;-59
2021/01/28 03:45:36;;;;;;;4.45;3.95;;;;;;;;;;4188458;34;20534;-59
2021/01/28 03:48:02;;;;;;;5.20;4.30;;;;;;;;;;4191974;34;20109;-60
2021/01/28 03:50:30;;;;;;;6.95;4.20;;;;;;;;;;4191720;34;20520;-61
2021/01/28 03:52:56;;;;;;;7.15;4.15;;;;;;;;;;4177368;34;20129;-61
2021/01/28 03:55:22;;;;;;;6.18;4.62;;;;;;;;;;4191299;34;20125;-59
2021/01/28 03:57:49;;;;;;;4.72;4.22;;;;;;;;;;4191701;34;20160;-59
2021/01/28 04:00:20;;;;;;;5.97;4.55;;;;;;;;;;4191343;34;20129;-60
2021/01/28 04:02:46;;;;;;;4.93;4.15;;;;;;;;;;4191605;34;20121;-61
2021/01/28 04:05:13;;;;;;;6.68;4.60;;;;;;;;;;4191522;34;20165;-61
2021/01/28 04:07:39;;;;;;;5.32;4.80;;;;;;;;;;4192375;34;20113;-61
2021/01/28 04:10:07;;;;;;;4.97;4.47;;;;;;;;;;4192181;34;20182;-61
2021/01/28 04:12:33;;;;;;;6.20;4.60;;;;;;;;;;4190845;34;20125;-62
2021/01/28 04:14:59;;;;;;;4.80;4.30;;;;;;;;;;4189746;34;20191;-61
2021/01/28 04:17:25;;;;;;;4.82;3.92;;;;;;;;;;4190012;34;20129;-61
2021/01/28 04:19:51;;;;;;;5.30;4.12;;;;;;;;;;4176233;34;20126;-61
2021/01/28 04:22:17;;;;;;;6.28;4.62;;;;;;;;;;4176058;34;20219;-62
2021/01/28 04:24:43;;;;;;;5.65;4.37;;;;;;;;;;4174777;34;20150;-61
2021/01/28 04:27:09;;;;;;;5.00;4.50;;;;;;;;;;4163809;34;20437;-60
2021/01/28 04:29:35;;;;;;;7.07;4.70;;;;;;;;;;4178149;34;20113;-60
2021/01/28 04:32:01;;;;;;;6.12;4.05;;;;;;;;;;4175263;34;20539;-59
2021/01/28 04:34:27;;;;;;;4.62;4.03;;;;;;;;;;4186891;34;20214;-62
2021/01/28 04:36:53;;;;;;;5.20;4.25;;;;;;;;;;4187319;34;20148;-60
2021/01/28 04:39:19;;;;;;;5.30;4.50;;;;;;;;;;4190759;34;20133;-60
2021/01/28 04:41:45;;;;;;;4.97;4.07;;;;;;;;;;4191150;34;20134;-61
2021/01/28 04:44:11;;;;;;;6.18;4.93;;;;;;;;;;4190992;34;20557;-61
2021/01/28 04:46:39;;;;;;;6.37;4.97;;;;;;;;;;4166770;34;20473;-60
2021/01/28 04:49:06;;;;;;;6.18;4.97;;;;;;;;;;4166740;34;20201;-60
2021/01/28 04:51:32;;;;;;;5.87;4.75;;;;;;;;;;4190621;34;20454;-60
2021/01/28 04:54:04;;;;;;;6.43;5.12;;;;;;;;;;4153929;34;20170;-60
2021/01/28 04:56:30;;;;;;;7.57;4.85;;;;;;;;;;4176600;34;20129;-60
2021/01/28 04:59:06;;;;;;;7.43;4.72;;;;;;;;;;4167380;34;20130;-61
2021/01/28 05:01:32;;;;;;;13.25;6.87;;;;;;;;;;4167290;34;20119;-61
2021/01/28 05:03:58;;;;;;;6.12;4.97;;;;;;;;;;4178781;34;20140;-60
2021/01/28 05:06:24;;;;;;;7.43;5.12;;;;;;;;;;4173463;34;20126;-60
2021/01/28 05:08:50;;;;;;;6.22;4.65;;;;;;;;;;4163745;34;20543;-60
2021/01/28 05:11:35;;;;;;;6.53;4.93;;;;;;;;;;4163200;34;20107;-61
2021/01/28 05:14:14;;;;;;;6.20;4.60;;;;;;;;;;4163728;34;20123;-59
2021/01/28 05:16:44;;;;;;;7.30;4.93;;;;;;;;;;4163705;34;20091;-60
2021/01/28 05:19:12;;;;;;;5.47;4.50;;;;;;;;;;4163661;34;20110;-59
2021/01/28 05:21:42;;;;;;;6.65;5.00;;;;;;;;;;4163160;34;20137;-62
2021/01/28 05:24:47;;;;;;;6.05;5.03;;;;;;;;;;4173501;34;20195;-61
2021/01/28 05:27:34;;;;;;;5.62;5.03;;;;;;;;;;4161363;34;20110;-60
2021/01/28 05:30:01;;;;;;;5.53;4.87;;;;;;;;;;4162848;34;20114;-59
2021/01/28 05:32:32;;;;;;;5.75;5.05;;;;;;;;;;4163288;34;20527;-58
2021/01/28 05:35:16;;;;;;;5.93;4.78;;;;;;;;;;4162998;34;20451;-57
2021/01/28 05:37:43;;;;;;;5.72;4.87;;;;;;;;;;4163582;34;20137;-60
2021/01/28 05:40:29;;;;;;;6.37;5.53;;;;;;;;;;4158213;34;20113;-61
2021/01/28 05:42:55;;;;;;;5.00;4.50;;;;;;;;;;4155435;34;20136;-61
2021/01/28 05:45:36;;;;;;;5.30;4.80;;;;;;;;;;4161182;34;20138;-61
2021/01/28 05:48:23;;;;;;;6.00;5.03;;;;;;;;;;4159661;34;20470;-60
2021/01/28 05:51:03;;;;;;;5.93;5.20;;;;;;;;;;4161093;34;20219;-61
2021/01/28 05:53:29;;;;;;;7.28;5.22;;;;;;;;;;4171307;34;20126;-61
2021/01/28 05:55:56;;;;;;;6.10;4.95;;;;;;;;;;4165287;34;20138;-58
2021/01/28 05:58:23;;;;;;;7.25;5.22;;;;;;;;;;4163084;34;20556;-57
2021/01/28 06:01:11;;;;;;;7.50;5.28;;;;;;;;;;4162576;34;20166;-56
2021/01/28 06:03:44;;;;;;;6.03;4.75;;;;;;;;;;4162593;34;20107;-56
2021/01/28 06:06:38;;;;;;;6.30;4.82;;;;;;;;;;4185452;34;20134;-56
2021/01/28 06:09:22;;;;;;;5.47;4.45;;;;;;;;;;4190276;34;20406;-57
2021/01/28 06:12:14;;;;;;;5.95;4.55;;;;;;;;;;4190073;34;20129;-54
2021/01/28 06:14:58;;;;;;;5.12;4.62;;;;;;;;;;4190204;34;20662;-56
2021/01/28 06:17:58;;;;;;;6.25;5.12;;;;;;;;;;4190186;34;20127;-56
2021/01/28 06:20:33;;;;;;;8.52;5.47;;;;;;;;;;4170509;34;20129;-57
2021/01/28 06:23:23;;;;;;;10.00;6.00;;;;;;;;;;4190294;34;20198;-56
2021/01/28 06:26:03;;;;;;;7.50;5.03;;;;;;;;;;4190196;34;20205;-56
2021/01/28 06:28:33;;;;;;;6.15;5.55;;;;;;;;;;4177915;34;20461;-61
2021/01/28 06:31:25;;;;;;;7.93;5.10;;;;;;;;;;4189668;34;20118;-61
2021/01/28 06:34:00;;;;;;;6.50;5.40;;;;;;;;;;4177305;34;20100;-62
2021/01/28 06:36:36;;;;;;;6.80;5.10;;;;;;;;;;4177606;34;20136;-62
2021/01/28 06:39:23;;;;;;;6.03;4.85;;;;;;;;;;4177165;34;20525;-62
2021/01/28 06:42:08;;;;;;;5.60;5.00;;;;;;;;;;4176970;34;20129;-61
2021/01/28 06:44:55;;;;;;;8.52;5.20;;;;;;;;;;4178397;34;20271;-61
2021/01/28 06:47:34;;;;;;;6.65;5.22;;;;;;;;;;4177091;34;20105;-61
2021/01/28 06:50:18;;;;;;;6.45;5.62;;;;;;;;;;4177098;34;20129;-62
2021/01/28 06:53:15;;;;;;;8.75;5.90;;;;;;;;;;4178032;34;20185;-61
2021/01/28 06:55:43;;;;;;;7.25;5.47;;;;;;;;;;4176907;34;20102;-61
2021/01/28 06:58:31;;;;;;;6.50;4.80;;;;;;;;;;4177132;34;20613;-61
2021/01/28 07:01:17;;;;;;;6.75;5.75;;;;;;;;;;4179974;34;20118;-62
2021/01/28 07:03:55;;;;;;;10.43;6.25;;;;;;;;;;4181275;34;20149;-60
2021/01/28 07:06:45;;;;;;;9.40;6.62;;;;;;;;;;4178749;34;20118;-61
2021/01/28 07:09:17;;;;;;;10.15;6.40;;;;;;;;;;4191670;34;20467;-61
2021/01/28 07:11:43;;;;;;;7.85;6.35;;;;;;;;;;4178720;34;20133;-61
2021/01/28 07:14:16;;;;;;;8.95;7.43;;;;;;;;;;4178836;34;20110;-60
2021/01/28 07:16:56;;;;;;;9.05;7.30;;;;;;;;;;4191901;34;20189;-60
2021/01/28 07:19:25;;;;;;;7.28;6.22;;;;;;;;;;4185428;34;20217;-61
2021/01/28 07:21:52;;;;;;;12.68;7.03;;;;;;;;;;4178929;34;20233;-61
2021/01/28 07:24:32;;;;;;;9.40;6.60;;;;;;;;;;4191367;34;20137;-60
2021/01/28 07:27:08;;;;;;;8.40;6.22;;;;;;;;;;4191646;34;20238;-60
2021/01/28 07:29:35;;;;;;;7.60;5.72;;;;;;;;;;4167467;34;20421;-60
2021/01/28 07:32:03;;;;;;;7.32;5.95;;;;;;;;;;4191399;34;20106;-60
2021/01/28 07:34:28;;;;;;;6.95;5.60;;;;;;;;;;4167211;34;20140;-60
2021/01/28 07:36:59;;;;;;;8.32;5.37;;;;;;;;;;4191602;34;20453;-61
2021/01/28 07:39:31;;;;;;;6.68;5.10;;;;;;;;;;4191532;34;20138;-61
2021/01/28 07:41:57;;;;;;;8.13;4.90;;;;;;;;;;4191225;34;20461;-61
2021/01/28 07:44:34;;;;;;;6.82;5.40;;;;;;;;;;4191068;34;20136;-61
2021/01/28 07:47:00;;;;;;;8.52;5.15;;;;;;;;;;4178799;34;20450;-60
2021/01/28 07:49:31;;;;;;;6.32;5.03;;;;;;;;;;4178298;34;20121;-61
2021/01/28 07:52:03;;;;;;;7.05;4.93;;;;;;;;;;4178433;34;20571;-61
2021/01/28 07:54:29;;;;;;;6.82;5.32;;;;;;;;;;4191284;34;20519;-61
2021/01/28 07:57:04;;;;;;;7.05;5.07;;;;;;;;;;4191513;34;20141;-61
2021/01/28 07:59:32;;;;;;;8.75;5.75;;;;;;;;;;4191117;34;20118;-61
2021/01/28 08:02:09;;;;;;;8.20;5.20;;;;;;;;;;4191260;34;20137;-62
2021/01/28 08:04:44;;;;;;;9.60;5.75;;;;;;;;;;4178084;34;20112;-61
2021/01/28 08:07:12;;;;;;;8.13;5.73;;;;;;;;;;4191225;34;20114;-60
2021/01/28 08:09:54;;;;;;;7.95;5.50;;;;;;;;;;4191026;34;20386;-61
2021/01/28 08:12:32;;;;;;;6.82;5.25;;;;;;;;;;4190666;34;20102;-60
2021/01/28 08:14:59;;;;;;;6.82;5.47;;;;;;;;;;4178134;34;20102;-61
2021/01/28 08:17:30;;;;;;;6.12;5.32;;;;;;;;;;4178635;34;20384;-60
2021/01/28 08:20:32;;;;;;;8.30;5.37;;;;;;;;;;4186893;34;20177;-61
2021/01/28 08:23:06;;;;;;;6.35;5.18;;;;;;;;;;4148358;34;20215;-60
2021/01/28 08:25:35;;;;;;;7.95;5.80;;;;;;;;;;4184516;34;20129;-61
2021/01/28 08:28:13;;;;;;;7.30;5.75;;;;;;;;;;4191261;34;20140;-62
2021/01/28 08:30:39;;;;;;;6.85;5.55;;;;;;;;;;4178240;34;20117;-61
2021/01/28 08:33:05;;;;;;;6.15;5.03;;;;;;;;;;4190789;34;20110;-61
2021/01/28 08:35:42;;;;;;;8.60;5.82;;;;;;;;;;4178079;34;20185;-62
2021/01/28 08:38:20;;;;;;;7.75;5.70;;;;;;;;;;4167508;34;20111;-61
2021/01/28 08:41:03;;;;;;;6.97;5.60;;;;;;;;;;4190652;34;20686;-60
2021/01/28 08:43:29;;;;;;;8.20;5.25;;;;;;;;;;4191008;34;20226;-61
2021/01/28 08:46:05;;;;;;;8.80;5.82;;;;;;;;;;4190833;34;20129;-61
2021/01/28 08:48:32;;;;;;;7.60;5.97;;;;;;;;;;4191038;34;20120;-62
2021/01/28 08:51:15;;;;;;;6.57;5.40;;;;;;;;;;4177892;34;20137;-62
2021/01/28 08:53:44;;;;;;;7.18;4.97;;;;;;;;;;4178148;34;20271;-61
2021/01/28 08:56:17;;;;;;;8.73;6.20;;;;;;;;;;4164039;34;20154;-61
2021/01/28 08:58:43;;;;;;;7.62;5.62;;;;;;;;;;4153719;34;20102;-61
2021/01/28 09:01:13;;;;;;;7.75;6.20;;;;;;;;;;4172674;34;20130;-61
2021/01/28 09:03:53;;;;;;;10.38;6.15;;;;;;;;;;4177144;34;20117;-61
2021/01/28 09:06:19;;;;;;;8.60;6.50;;;;;;;;;;4188919;34;20102;-62
2021/01/28 09:08:45;;;;;;;9.52;6.70;;;;;;;;;;4178186;34;20101;-64
2021/01/28 09:11:11;;;;;;;7.90;6.28;;;;;;;;;;4177936;34;20129;-59
2021/01/28 09:13:37;;;;;;;9.55;7.12;;;;;;;;;;4191412;34;20126;-59
2021/01/28 09:16:14;;;;;;;7.22;6.37;;;;;;;;;;4178568;34;20133;-59
2021/01/28 09:18:47;;;;;;;8.60;6.95;;;;;;;;;;4184393;34;20517;-59
2021/01/28 09:21:18;;;;;;;8.10;6.95;;;;;;;;;;4192239;34;20133;-59
2021/01/28 09:23:56;;;;;;;10.05;6.93;;;;;;;;;;4204632;34;20212;-60
2021/01/28 09:26:28;;;;;;;11.25;7.07;;;;;;;;;;4205075;34;20121;-59
2021/01/28 09:28:54;;;;;;;10.05;7.87;;;;;;;;;;4204961;34;20121;-62
2021/01/28 09:31:25;;;;;;;10.82;8.32;;;;;;;;;;4180813;34;20126;-61
2021/01/28 09:33:50;;;;;;;9.65;7.43;;;;;;;;;;4205325;34;20125;-60
2021/01/28 09:36:23;;;;;;;12.02;8.25;;;;;;;;;;4205269;34;20548;-60
2021/01/28 09:38:59;;;;;;;11.65;9.02;;;;;;;;;;4191488;34;20129;-59
2021/01/28 09:41:28;;;;;;;12.10;8.65;;;;;;;;;;4204913;34;20101;-58
2021/01/28 09:43:53;;;;;;;10.05;8.20;;;;;;;;;;4192116;34;20121;-59
2021/01/28 09:46:19;;;;;;;14.02;9.63;;;;;;;;;;4204773;34;20149;-60
2021/01/28 09:48:49;;;;;;;11.45;9.02;;;;;;;;;;4205255;34;20122;-62
2021/01/28 09:51:24;;;;;;;13.35;9.25;;;;;;;;;;4204874;34;20121;-64
2021/01/28 09:54:00;;;;;;;11.85;9.38;;;;;;;;;;4192586;34;20443;-63
2021/01/28 09:56:26;;;;;;;14.00;10.00;;;;;;;;;;4204953;34;20120;-58
2021/01/28 09:58:52;;;;;;;13.90;9.77;;;;;;;;;;4204952;34;20212;-60
2021/01/28 10:01:18;;;;;;;10.57;8.93;;;;;;;;;;4202595;34;20561;-60
2021/01/28 10:03:44;;;;;;;13.30;9.60;;;;;;;;;;4189561;34;20129;-60
2021/01/28 10:06:10;;;;;;;13.00;9.27;;;;;;;;;;4190801;34;20125;-60
2021/01/28 10:08:35;;;;;;;17.62;11.48;;;;;;;;;;4189314;34;20742;-60
2021/01/28 10:11:02;;;;;;;12.95;9.35;;;;;;;;;;4190685;34;20141;-59
2021/01/28 10:13:28;;;;;;;12.80;8.38;;;;;;;;;;4175937;34;20197;-60
2021/01/28 10:15:54;;;;;;;13.07;10.15;;;;;;;;;;4178320;34;20113;-59
2021/01/28 10:18:19;;;;;;;11.35;9.07;;;;;;;;;;4190783;34;20467;-59
2021/01/28 10:20:45;;;;;;;10.45;9.15;;;;;;;;;;4190921;34;20253;-59
2021/01/28 10:23:11;;;;;;;12.93;9.13;;;;;;;;;;4190728;34;20169;-60
2021/01/28 10:25:37;;;;;;;11.93;10.38;;;;;;;;;;4191133;34;20221;-59
2021/01/28 10:28:05;;;;;;;11.90;10.15;;;;;;;;;;4190706;34;20105;-60
2021/01/28 10:30:30;;;;;;;13.52;10.38;;;;;;;;;;4190775;34;20126;-59
2021/01/28 10:32:57;;;;;;;12.02;9.32;;;;;;;;;;4190334;34;20221;-59
2021/01/28 10:35:27;;;;;;;12.07;9.20;;;;;;;;;;4177676;34;20224;-61
2021/01/28 10:37:53;;;;;;;16.08;13.18;;;;;;;;;;4190637;34;20523;-61
2021/01/28 10:40:20;;;;;;;17.90;13.80;;;;;;;;;;4190579;34;20106;-62
2021/01/28 10:42:46;;;;;;;21.30;16.10;;;;;;;;;;4190515;34;20141;-61
2021/01/28 10:45:21;;;;;;;26.85;19.87;;;;;;;;;;4177834;34;20143;-61
2021/01/28 10:47:47;;;;;;;18.98;13.90;;;;;;;;;;4190564;34;20142;-60
2021/01/28 10:50:14;;;;;;;16.95;12.30;;;;;;;;;;4190405;34;20121;-60
2021/01/28 10:52:40;;;;;;;12.07;8.98;;;;;;;;;;4189405;34;20193;-58
2021/01/28 10:55:08;;;;;;;15.95;10.32;;;;;;;;;;4190429;34;20229;-59
2021/01/28 10:57:34;;;;;;;17.25;12.02;;;;;;;;;;4176041;34;20132;-58
2021/01/28 11:00:00;;;;;;;17.20;11.15;;;;;;;;;;4188197;34;20138;-58
2021/01/28 11:02:26;;;;;;;12.40;9.50;;;;;;;;;;4188320;34;20232;-59
2021/01/28 11:04:52;;;;;;;12.73;8.95;;;;;;;;;;4188183;34;20126;-59
2021/01/28 11:07:18;;;;;;;11.63;8.20;;;;;;;;;;4188273;34;20128;-59
2021/01/28 11:09:43;;;;;;;12.15;9.30;;;;;;;;;;4188155;34;20564;-59
2021/01/28 11:12:09;;;;;;;16.80;10.07;;;;;;;;;;4188154;34;20142;-60
2021/01/28 11:14:36;;;;;;;16.87;9.02;;;;;;;;;;4188675;34;20134;-62
2021/01/28 11:17:02;;;;;;;13.90;10.18;;;;;;;;;;4189807;34;20117;-62
2021/01/28 11:19:28;;;;;;;13.10;9.30;;;;;;;;;;4200027;34;20101;-60
2021/01/28 11:21:54;;;;;;;25.23;15.20;;;;;;;;;;4203657;34;20121;-61
2021/01/28 11:24:19;;;;;;;22.33;13.90;;;;;;;;;;4190790;34;20129;-63
2021/01/28 11:26:45;;;;;;;21.73;13.50;;;;;;;;;;4191532;34;20132;-64
2021/01/28 11:29:12;;;;;;;23.45;14.93;;;;;;;;;;4204062;34;20463;-65
2021/01/28 11:31:38;;;;;;;30.17;19.50;;;;;;;;;;4204311;34;20094;-62
2021/01/28 11:34:04;;;;;;;28.38;18.58;;;;;;;;;;4191130;34;20197;-60
2021/01/28 11:36:30;;;;;;;20.33;14.82;;;;;;;;;;4204042;34;20162;-60
2021/01/28 11:38:56;;;;;;;14.85;12.27;;;;;;;;;;4204139;34;20137;-61
2021/01/28 11:41:22;;;;;;;13.43;9.95;;;;;;;;;;4191504;34;20102;-60
2021/01/28 11:43:48;;;;;;;11.57;8.77;;;;;;;;;;4204216;34;20110;-59
2021/01/28 11:46:14;;;;;;;11.60;8.40;;;;;;;;;;4191414;34;20110;-60
2021/01/28 11:48:40;;;;;;;12.77;9.07;;;;;;;;;;4206223;34;20121;-61
2021/01/28 11:51:06;;;;;;;14.45;8.13;;;;;;;;;;4205896;34;20141;-60
2021/01/28 11:53:32;;;;;;;11.95;8.70;;;;;;;;;;4205571;34;20556;-62
2021/01/28 11:55:58;;;;;;;14.60;7.53;;;;;;;;;;4205535;34;20510;-63
2021/01/28 11:58:24;;;;;;;8.90;7.97;;;;;;;;;;4205721;34;20114;-64
2021/01/28 12:00:51;;;;;;;9.02;7.43;;;;;;;;;;4206021;34;20130;-61
2021/01/28 12:03:17;;;;;;;9.55;7.68;;;;;;;;;;4205682;34;20209;-61
2021/01/28 12:05:43;;;;;;;11.30;6.97;;;;;;;;;;4205470;34;20380;-60
2021/01/28 12:08:09;;;;;;;13.70;10.10;;;;;;;;;;4205637;34;20102;-61
2021/01/28 12:10:35;;;;;;;19.20;17.10;;;;;;;;;;4205544;34;20174;-61
2021/01/28 12:13:01;;;;;;;11.15;6.87;;;;;;;;;;4205506;34;20114;-60
2021/01/28 12:15:27;;;;;;;9.05;7.07;;;;;;;;;;4205558;34;20113;-62
2021/01/28 12:17:53;;;;;;;9.40;7.57;;;;;;;;;;4205613;34;20470;-61
2021/01/28 12:20:29;;;;;;;10.25;7.53;;;;;;;;;;4205864;34;20205;-60
2021/01/28 12:22:56;;;;;;;13.80;7.03;;;;;;;;;;4192874;34;20212;-62
2021/01/28 12:25:22;;;;;;;10.05;7.30;;;;;;;;;;4193052;34;20111;-58
2021/01/28 12:27:48;;;;;;;9.55;7.07;;;;;;;;;;4205902;34;20204;-62
2021/01/28 12:30:18;;;;;;;10.35;7.85;;;;;;;;;;4205270;34;20152;-62
2021/01/28 12:32:44;;;;;;;9.55;7.90;;;;;;;;;;4205452;34;20244;-61
2021/01/28 12:35:10;;;;;;;11.52;7.45;;;;;;;;;;4205516;34;20125;-59
2021/01/28 12:37:36;;;;;;;9.93;7.55;;;;;;;;;;4205354;34;20181;-60
2021/01/28 12:40:04;;;;;;;10.35;8.18;;;;;;;;;;4205653;34;20107;-60
2021/01/28 12:42:31;;;;;;;10.40;7.72;;;;;;;;;;4205870;34;20121;-60
2021/01/28 12:44:57;;;;;;;9.68;7.68;;;;;;;;;;4205818;34;20538;-60
2021/01/28 12:47:22;;;;;;;11.63;8.57;;;;;;;;;;4205683;34;20109;-59
2021/01/28 12:49:48;;;;;;;11.45;8.30;;;;;;;;;;4205710;34;20102;-61
2021/01/28 12:52:16;;;;;;;11.90;8.70;;;;;;;;;;4177819;34;20521;-60
2021/01/28 12:54:42;;;;;;;12.55;8.85;;;;;;;;;;4191090;34;20129;-60
2021/01/28 12:57:08;;;;;;;9.88;8.45;;;;;;;;;;4191322;34;20130;-61
2021/01/28 12:59:34;;;;;;;9.00;7.90;;;;;;;;;;4191505;34;20130;-63
2021/01/28 13:02:00;;;;;;;10.27;8.57;;;;;;;;;;4191344;34;20137;-62
2021/01/28 13:04:25;;;;;;;12.32;8.73;;;;;;;;;;4191144;34;20229;-61
2021/01/28 13:06:51;;;;;;;11.38;8.85;;;;;;;;;;4190845;34;20106;-61
2021/01/28 13:09:17;;;;;;;10.43;8.68;;;;;;;;;;4191471;34;20102;-61
2021/01/28 13:11:43;;;;;;;12.18;8.95;;;;;;;;;;4191315;34;20133;-61
2021/01/28 13:14:09;;;;;;;12.95;9.75;;;;;;;;;;4191352;34;20129;-61
2021/01/28 13:16:35;;;;;;;12.30;10.13;;;;;;;;;;4190994;34;20439;-59
2021/01/28 13:19:01;;;;;;;13.52;10.38;;;;;;;;;;4191505;34;20103;-60
2021/01/28 13:21:27;;;;;;;11.35;9.32;;;;;;;;;;4191442;34;20144;-62
2021/01/28 13:23:53;;;;;;;11.88;10.25;;;;;;;;;;4191511;34;20124;-62
2021/01/28 13:26:20;;;;;;;12.27;9.43;;;;;;;;;;4164657;34;20090;-58
2021/01/28 13:28:46;;;;;;;15.77;9.65;;;;;;;;;;4177619;34;20130;-60
2021/01/28 13:31:12;;;;;;;14.10;10.13;;;;;;;;;;4182497;34;20109;-62
2021/01/28 13:33:38;;;;;;;14.10;10.07;;;;;;;;;;4191507;34;20129;-61
2021/01/28 13:36:05;;;;;;;13.43;10.60;;;;;;;;;;4190895;34;20149;-61
2021/01/28 13:38:30;;;;;;;11.45;9.80;;;;;;;;;;4191289;34;20125;-60
2021/01/28 13:40:57;;;;;;;13.95;10.32;;;;;;;;;;4178287;34;20576;-60
2021/01/28 13:43:23;;;;;;;16.30;10.40;;;;;;;;;;4191464;34;20122;-62
2021/01/28 13:45:49;;;;;;;16.00;10.77;;;;;;;;;;4191091;34;20226;-61
2021/01/28 13:48:15;;;;;;;13.20;11.70;;;;;;;;;;4191269;34;20106;-59
2021/01/28 13:50:41;;;;;;;13.75;11.70;;;;;;;;;;4191106;34;20213;-61
2021/01/28 13:53:07;;;;;;;15.57;12.98;;;;;;;;;;4190161;34;20101;-60
2021/01/28 13:55:33;;;;;;;15.30;12.35;;;;;;;;;;4190854;34;20113;-61
2021/01/28 13:57:59;;;;;;;15.32;11.73;;;;;;;;;;4190993;34;20517;-62
2021/01/28 14:00:25;;;;;;;16.40;11.93;;;;;;;;;;4178044;34;20190;-63
2021/01/28 14:02:51;;;;;;;14.30;12.00;;;;;;;;;;4190689;34;20187;-63
2021/01/28 14:05:19;;;;;;;13.93;11.95;;;;;;;;;;4190636;34;20224;-63
2021/01/28 14:07:45;;;;;;;14.50;10.85;;;;;;;;;;4191128;34;20125;-61
2021/01/28 14:10:13;;;;;;;14.45;11.48;;;;;;;;;;4190304;34;20122;-59
2021/01/28 14:12:44;;;;;;;12.80;10.85;;;;;;;;;;4176834;34;20129;-63
2021/01/28 14:15:12;;;;;;;14.73;12.25;;;;;;;;;;4174837;34;20118;-59
2021/01/28 14:17:38;;;;;;;14.77;12.55;;;;;;;;;;4175007;34;20106;-61
2021/01/28 14:20:04;;;;;;;14.63;12.57;;;;;;;;;;4201536;34;20216;-60
2021/01/28 14:22:30;;;;;;;16.02;13.38;;;;;;;;;;4202571;34;20147;-60
2021/01/28 14:24:56;;;;;;;14.45;12.52;;;;;;;;;;4202376;34;20565;-60
2021/01/28 14:27:23;;;;;;;15.45;13.25;;;;;;;;;;4202830;34;20158;-60
2021/01/28 14:29:49;;;;;;;15.32;13.65;;;;;;;;;;4203152;34;20124;-61
2021/01/28 14:32:15;;;;;;;14.95;13.32;;;;;;;;;;4204713;34;20193;-61
2021/01/28 14:34:41;;;;;;;15.05;13.48;;;;;;;;;;4191745;34;20122;-60
2021/01/28 14:37:07;;;;;;;14.87;13.27;;;;;;;;;;4204666;34;20109;-60
2021/01/28 14:39:33;;;;;;;15.45;12.90;;;;;;;;;;4203857;34;20165;-61
2021/01/28 14:41:59;;;;;;;14.50;12.90;;;;;;;;;;4204802;34;20116;-60
2021/01/28 14:44:25;;;;;;;14.07;12.50;;;;;;;;;;4204562;34;20118;-59
2021/01/28 14:46:51;;;;;;;12.88;11.57;;;;;;;;;;4204855;34;20534;-60
2021/01/28 14:49:17;;;;;;;14.80;11.98;;;;;;;;;;4204408;34;20109;-60
2021/01/28 14:51:43;;;;;;;13.50;11.85;;;;;;;;;;4204630;34;20220;-59